sensor_id;sensor_type;location;lat;lon;timestamp;P1;durP1;ratioP1;P2;durP2;ratioP2
40867;SDS011;26586;50.708;22.412;2022-09-09T00:01:59;10.13;;;5.60;;
40867;SDS011;26586;50.708;22.412;2022-09-09T00:04:57;10.25;;;5.90;;
40867;SDS011;26586;50.708;22.412;2022-09-09T00:07:38;13.18;;;6.28;;
40867;SDS011;26586;50.708;22.412;2022-09-09T00:10:27;9.73;;;5.70;;
40867;SDS011;26586;50.708;22.412;2022-09-09T00:15:31;10.82;;;6.20;;
40867;SDS011;26586;50.708;22.412;2022-09-09T00:18:15;10.82;;;5.90;;
40867;SDS011;26586;50.708;22.412;2022-09-09T00:20:52;11.20;;;5.83;;
40867;SDS011;26586;50.708;22.412;2022-09-09T00:23:28;11.20;;;5.70;;
40867;SDS011;26586;50.708;22.412;2022-09-09T00:29:00;10.48;;;6.28;;
40867;SDS011;26586;50.708;22.412;2022-09-09T00:31:41;9.93;;;6.10;;
40867;SDS011;26586;50.708;22.412;2022-09-09T00:34:09;9.53;;;6.30;;
40867;SDS011;26586;50.708;22.412;2022-09-09T00:36:50;9.30;;;5.97;;
40867;SDS011;26586;50.708;22.412;2022-09-09T00:44:51;9.02;;;5.55;;
40867;SDS011;26586;50.708;22.412;2022-09-09T00:56:20;11.52;;;6.50;;
40867;SDS011;26586;50.708;22.412;2022-09-09T01:01:55;11.13;;;6.22;;
40867;SDS011;26586;50.708;22.412;2022-09-09T01:04:25;10.98;;;6.45;;
40867;SDS011;26586;50.708;22.412;2022-09-09T01:07:03;10.95;;;5.68;;
40867;SDS011;26586;50.708;22.412;2022-09-09T01:09:44;9.43;;;5.22;;
40867;SDS011;26586;50.708;22.412;2022-09-09T01:12:41;8.68;;;5.60;;
40867;SDS011;26586;50.708;22.412;2022-09-09T01:15:10;8.95;;;5.38;;
40867;SDS011;26586;50.708;22.412;2022-09-09T01:20:37;11.93;;;5.97;;
40867;SDS011;26586;50.708;22.412;2022-09-09T01:28:48;10.20;;;5.72;;
40867;SDS011;26586;50.708;22.412;2022-09-09T01:31:35;10.55;;;5.85;;
40867;SDS011;26586;50.708;22.412;2022-09-09T01:34:13;9.25;;;5.93;;
40867;SDS011;26586;50.708;22.412;2022-09-09T01:39:10;11.60;;;5.68;;
40867;SDS011;26586;50.708;22.412;2022-09-09T01:41:37;9.25;;;5.70;;
40867;SDS011;26586;50.708;22.412;2022-09-09T01:44:03;10.23;;;6.28;;
40867;SDS011;26586;50.708;22.412;2022-09-09T01:46:30;10.77;;;5.28;;
40867;SDS011;26586;50.708;22.412;2022-09-09T01:48:56;9.93;;;5.30;;
40867;SDS011;26586;50.708;22.412;2022-09-09T01:51:24;10.27;;;5.63;;
40867;SDS011;26586;50.708;22.412;2022-09-09T01:53:50;11.05;;;5.47;;
40867;SDS011;26586;50.708;22.412;2022-09-09T02:04:20;11.73;;;5.38;;
40867;SDS011;26586;50.708;22.412;2022-09-09T02:09:21;9.50;;;5.25;;
40867;SDS011;26586;50.708;22.412;2022-09-09T02:11:49;7.95;;;5.28;;
40867;SDS011;26586;50.708;22.412;2022-09-09T02:14:41;11.80;;;5.15;;
40867;SDS011;26586;50.708;22.412;2022-09-09T02:17:13;11.35;;;5.38;;
40867;SDS011;26586;50.708;22.412;2022-09-09T02:19:46;8.35;;;5.30;;
40867;SDS011;26586;50.708;22.412;2022-09-09T02:22:17;9.10;;;5.25;;
40867;SDS011;26586;50.708;22.412;2022-09-09T02:24:46;10.05;;;5.63;;
40867;SDS011;26586;50.708;22.412;2022-09-09T02:27:15;8.55;;;4.68;;
40867;SDS011;26586;50.708;22.412;2022-09-09T02:29:44;13.32;;;4.90;;
40867;SDS011;26586;50.708;22.412;2022-09-09T02:32:14;9.10;;;5.18;;
40867;SDS011;26586;50.708;22.412;2022-09-09T02:34:43;7.85;;;5.10;;
40867;SDS011;26586;50.708;22.412;2022-09-09T02:37:13;8.65;;;5.32;;
40867;SDS011;26586;50.708;22.412;2022-09-09T02:39:43;9.48;;;5.18;;
40867;SDS011;26586;50.708;22.412;2022-09-09T02:42:09;10.52;;;5.45;;
40867;SDS011;26586;50.708;22.412;2022-09-09T02:44:36;7.73;;;4.60;;
40867;SDS011;26586;50.708;22.412;2022-09-09T02:49:48;7.63;;;4.85;;
40867;SDS011;26586;50.708;22.412;2022-09-09T02:58:02;6.60;;;4.22;;
40867;SDS011;26586;50.708;22.412;2022-09-09T03:00:32;7.45;;;4.85;;
40867;SDS011;26586;50.708;22.412;2022-09-09T03:03:02;9.50;;;4.60;;
40867;SDS011;26586;50.708;22.412;2022-09-09T03:05:29;8.15;;;4.68;;
40867;SDS011;26586;50.708;22.412;2022-09-09T03:07:55;7.18;;;4.68;;
40867;SDS011;26586;50.708;22.412;2022-09-09T03:10:22;8.00;;;4.60;;
40867;SDS011;26586;50.708;22.412;2022-09-09T03:12:48;9.13;;;4.65;;
40867;SDS011;26586;50.708;22.412;2022-09-09T03:15:15;7.47;;;4.15;;
40867;SDS011;26586;50.708;22.412;2022-09-09T03:17:42;8.05;;;4.90;;
40867;SDS011;26586;50.708;22.412;2022-09-09T03:20:08;6.22;;;4.80;;
40867;SDS011;26586;50.708;22.412;2022-09-09T03:22:35;7.40;;;4.82;;
40867;SDS011;26586;50.708;22.412;2022-09-09T03:25:01;9.20;;;4.60;;
40867;SDS011;26586;50.708;22.412;2022-09-09T03:27:28;8.00;;;4.43;;
40867;SDS011;26586;50.708;22.412;2022-09-09T03:29:55;8.50;;;5.22;;
40867;SDS011;26586;50.708;22.412;2022-09-09T03:32:21;7.50;;;4.80;;
40867;SDS011;26586;50.708;22.412;2022-09-09T03:34:51;8.27;;;4.53;;
40867;SDS011;26586;50.708;22.412;2022-09-09T03:37:18;8.43;;;5.10;;
40867;SDS011;26586;50.708;22.412;2022-09-09T03:42:15;8.88;;;4.53;;
40867;SDS011;26586;50.708;22.412;2022-09-09T03:44:45;10.05;;;4.57;;
40867;SDS011;26586;50.708;22.412;2022-09-09T03:47:18;7.68;;;4.80;;
40867;SDS011;26586;50.708;22.412;2022-09-09T03:49:47;6.25;;;4.20;;
40867;SDS011;26586;50.708;22.412;2022-09-09T03:52:16;7.70;;;4.40;;
40867;SDS011;26586;50.708;22.412;2022-09-09T03:57:09;7.15;;;4.68;;
40867;SDS011;26586;50.708;22.412;2022-09-09T03:59:36;6.28;;;3.92;;
40867;SDS011;26586;50.708;22.412;2022-09-09T04:02:03;8.50;;;4.47;;
40867;SDS011;26586;50.708;22.412;2022-09-09T04:04:29;8.65;;;4.88;;
40867;SDS011;26586;50.708;22.412;2022-09-09T04:06:56;9.70;;;4.88;;
40867;SDS011;26586;50.708;22.412;2022-09-09T04:09:22;8.25;;;4.43;;
40867;SDS011;26586;50.708;22.412;2022-09-09T04:11:48;8.40;;;5.00;;
40867;SDS011;26586;50.708;22.412;2022-09-09T04:14:15;7.03;;;4.43;;
40867;SDS011;26586;50.708;22.412;2022-09-09T04:16:41;6.23;;;4.33;;
40867;SDS011;26586;50.708;22.412;2022-09-09T04:19:10;8.45;;;5.32;;
40867;SDS011;26586;50.708;22.412;2022-09-09T04:21:39;7.40;;;4.70;;
40867;SDS011;26586;50.708;22.412;2022-09-09T04:24:06;11.85;;;4.47;;
40867;SDS011;26586;50.708;22.412;2022-09-09T04:26:34;12.00;;;4.75;;
40867;SDS011;26586;50.708;22.412;2022-09-09T04:29:02;7.43;;;4.68;;
40867;SDS011;26586;50.708;22.412;2022-09-09T04:31:29;8.00;;;4.28;;
40867;SDS011;26586;50.708;22.412;2022-09-09T04:33:56;8.13;;;4.85;;
40867;SDS011;26586;50.708;22.412;2022-09-09T04:36:22;7.10;;;4.32;;
40867;SDS011;26586;50.708;22.412;2022-09-09T04:38:48;6.07;;;4.07;;
40867;SDS011;26586;50.708;22.412;2022-09-09T04:41:15;7.75;;;4.85;;
40867;SDS011;26586;50.708;22.412;2022-09-09T04:43:42;7.43;;;4.47;;
40867;SDS011;26586;50.708;22.412;2022-09-09T04:46:08;7.60;;;4.60;;
40867;SDS011;26586;50.708;22.412;2022-09-09T04:48:34;9.43;;;4.35;;
40867;SDS011;26586;50.708;22.412;2022-09-09T04:51:02;8.43;;;4.80;;
40867;SDS011;26586;50.708;22.412;2022-09-09T04:53:34;10.55;;;4.15;;
40867;SDS011;26586;50.708;22.412;2022-09-09T04:56:11;6.82;;;3.97;;
40867;SDS011;26586;50.708;22.412;2022-09-09T04:58:39;7.25;;;4.25;;
40867;SDS011;26586;50.708;22.412;2022-09-09T05:06:05;8.65;;;4.57;;
40867;SDS011;26586;50.708;22.412;2022-09-09T05:08:42;5.50;;;4.00;;
40867;SDS011;26586;50.708;22.412;2022-09-09T05:11:16;8.38;;;4.80;;
40867;SDS011;26586;50.708;22.412;2022-09-09T05:13:44;6.70;;;4.68;;
40867;SDS011;26586;50.708;22.412;2022-09-09T05:16:11;9.73;;;4.35;;
40867;SDS011;26586;50.708;22.412;2022-09-09T05:18:38;8.52;;;4.82;;
40867;SDS011;26586;50.708;22.412;2022-09-09T05:21:04;7.68;;;4.85;;
40867;SDS011;26586;50.708;22.412;2022-09-09T05:23:32;7.07;;;3.92;;
40867;SDS011;26586;50.708;22.412;2022-09-09T05:26:02;7.43;;;4.25;;
40867;SDS011;26586;50.708;22.412;2022-09-09T05:28:29;6.22;;;3.58;;
40867;SDS011;26586;50.708;22.412;2022-09-09T05:30:56;5.68;;;3.92;;
40867;SDS011;26586;50.708;22.412;2022-09-09T05:33:24;7.07;;;4.40;;
40867;SDS011;26586;50.708;22.412;2022-09-09T05:35:55;9.60;;;4.32;;
40867;SDS011;26586;50.708;22.412;2022-09-09T05:38:30;10.13;;;4.57;;
40867;SDS011;26586;50.708;22.412;2022-09-09T05:40:58;8.65;;;4.22;;
40867;SDS011;26586;50.708;22.412;2022-09-09T05:43:25;7.28;;;4.13;;
40867;SDS011;26586;50.708;22.412;2022-09-09T05:45:59;7.90;;;4.50;;
40867;SDS011;26586;50.708;22.412;2022-09-09T05:48:33;7.90;;;4.75;;
40867;SDS011;26586;50.708;22.412;2022-09-09T05:51:04;7.10;;;3.55;;
40867;SDS011;26586;50.708;22.412;2022-09-09T05:53:35;9.18;;;4.72;;
40867;SDS011;26586;50.708;22.412;2022-09-09T05:56:05;6.80;;;4.25;;
40867;SDS011;26586;50.708;22.412;2022-09-09T05:58:35;7.43;;;4.70;;
40867;SDS011;26586;50.708;22.412;2022-09-09T06:01:06;8.25;;;4.32;;
40867;SDS011;26586;50.708;22.412;2022-09-09T06:03:35;6.13;;;4.03;;
40867;SDS011;26586;50.708;22.412;2022-09-09T06:06:04;5.65;;;4.13;;
40867;SDS011;26586;50.708;22.412;2022-09-09T06:08:32;6.78;;;4.05;;
40867;SDS011;26586;50.708;22.412;2022-09-09T06:11:06;8.55;;;4.03;;
40867;SDS011;26586;50.708;22.412;2022-09-09T06:13:34;6.97;;;3.85;;
40867;SDS011;26586;50.708;22.412;2022-09-09T06:16:02;7.20;;;4.00;;
40867;SDS011;26586;50.708;22.412;2022-09-09T06:20:59;7.45;;;4.25;;
40867;SDS011;26586;50.708;22.412;2022-09-09T06:23:28;7.47;;;3.72;;
40867;SDS011;26586;50.708;22.412;2022-09-09T06:26:14;8.40;;;4.30;;
40867;SDS011;26586;50.708;22.412;2022-09-09T06:28:46;6.55;;;4.13;;
40867;SDS011;26586;50.708;22.412;2022-09-09T06:31:13;5.90;;;4.13;;
40867;SDS011;26586;50.708;22.412;2022-09-09T06:33:48;7.47;;;3.92;;
40867;SDS011;26586;50.708;22.412;2022-09-09T06:36:17;8.93;;;4.20;;
40867;SDS011;26586;50.708;22.412;2022-09-09T06:38:48;7.63;;;4.60;;
40867;SDS011;26586;50.708;22.412;2022-09-09T06:41:16;5.95;;;4.13;;
40867;SDS011;26586;50.708;22.412;2022-09-09T06:43:47;5.85;;;3.83;;
40867;SDS011;26586;50.708;22.412;2022-09-09T06:46:15;7.88;;;3.90;;
40867;SDS011;26586;50.708;22.412;2022-09-09T06:48:44;6.75;;;4.40;;
40867;SDS011;26586;50.708;22.412;2022-09-09T06:51:11;6.82;;;4.15;;
40867;SDS011;26586;50.708;22.412;2022-09-09T06:53:40;5.38;;;3.95;;
40867;SDS011;26586;50.708;22.412;2022-09-09T06:58:37;9.63;;;4.30;;
40867;SDS011;26586;50.708;22.412;2022-09-09T07:01:08;9.27;;;5.15;;
40867;SDS011;26586;50.708;22.412;2022-09-09T07:03:38;10.48;;;6.03;;
40867;SDS011;26586;50.708;22.412;2022-09-09T07:06:05;8.93;;;4.20;;
40867;SDS011;26586;50.708;22.412;2022-09-09T07:11:04;10.23;;;4.67;;
40867;SDS011;26586;50.708;22.412;2022-09-09T07:13:31;10.57;;;5.53;;
40867;SDS011;26586;50.708;22.412;2022-09-09T07:16:05;6.28;;;4.22;;
40867;SDS011;26586;50.708;22.412;2022-09-09T07:18:33;8.52;;;4.53;;
40867;SDS011;26586;50.708;22.412;2022-09-09T07:21:00;6.50;;;4.65;;
40867;SDS011;26586;50.708;22.412;2022-09-09T07:23:28;8.38;;;4.95;;
40867;SDS011;26586;50.708;22.412;2022-09-09T07:25:58;8.60;;;4.18;;
40867;SDS011;26586;50.708;22.412;2022-09-09T07:28:25;6.78;;;4.20;;
40867;SDS011;26586;50.708;22.412;2022-09-09T07:30:55;6.07;;;4.25;;
40867;SDS011;26586;50.708;22.412;2022-09-09T07:33:22;7.57;;;4.28;;
40867;SDS011;26586;50.708;22.412;2022-09-09T07:38:16;7.53;;;4.80;;
40867;SDS011;26586;50.708;22.412;2022-09-09T07:40:43;6.10;;;4.60;;
40867;SDS011;26586;50.708;22.412;2022-09-09T07:43:09;8.43;;;4.97;;
40867;SDS011;26586;50.708;22.412;2022-09-09T07:45:36;6.82;;;4.53;;
40867;SDS011;26586;50.708;22.412;2022-09-09T07:48:02;7.25;;;4.30;;
40867;SDS011;26586;50.708;22.412;2022-09-09T07:50:29;12.95;;;7.88;;
40867;SDS011;26586;50.708;22.412;2022-09-09T07:52:55;8.13;;;5.68;;
40867;SDS011;26586;50.708;22.412;2022-09-09T07:55:22;49.15;;;20.48;;
40867;SDS011;26586;50.708;22.412;2022-09-09T07:57:55;14.27;;;7.57;;
40867;SDS011;26586;50.708;22.412;2022-09-09T08:00:21;8.02;;;5.30;;
40867;SDS011;26586;50.708;22.412;2022-09-09T08:02:49;7.60;;;5.25;;
40867;SDS011;26586;50.708;22.412;2022-09-09T08:05:15;8.50;;;4.38;;
40867;SDS011;26586;50.708;22.412;2022-09-09T08:07:42;8.70;;;5.03;;
40867;SDS011;26586;50.708;22.412;2022-09-09T08:10:09;8.55;;;4.78;;
40867;SDS011;26586;50.708;22.412;2022-09-09T08:12:36;10.57;;;5.63;;
40867;SDS011;26586;50.708;22.412;2022-09-09T08:15:02;12.45;;;5.60;;
40867;SDS011;26586;50.708;22.412;2022-09-09T08:17:28;7.55;;;4.97;;
40867;SDS011;26586;50.708;22.412;2022-09-09T08:19:54;9.13;;;4.75;;
40867;SDS011;26586;50.708;22.412;2022-09-09T08:22:20;8.93;;;4.88;;
40867;SDS011;26586;50.708;22.412;2022-09-09T08:24:47;9.75;;;5.10;;
40867;SDS011;26586;50.708;22.412;2022-09-09T08:27:13;12.05;;;5.68;;
40867;SDS011;26586;50.708;22.412;2022-09-09T08:29:39;10.32;;;6.07;;
40867;SDS011;26586;50.708;22.412;2022-09-09T08:32:06;11.68;;;5.00;;
40867;SDS011;26586;50.708;22.412;2022-09-09T08:34:32;8.73;;;5.30;;
40867;SDS011;26586;50.708;22.412;2022-09-09T08:36:58;10.60;;;5.43;;
40867;SDS011;26586;50.708;22.412;2022-09-09T08:39:24;9.93;;;5.80;;
40867;SDS011;26586;50.708;22.412;2022-09-09T08:58:16;10.65;;;6.25;;
40867;SDS011;26586;50.708;22.412;2022-09-09T09:03:30;13.88;;;7.13;;
40867;SDS011;26586;50.708;22.412;2022-09-09T09:11:53;10.77;;;7.13;;
40867;SDS011;26586;50.708;22.412;2022-09-09T09:14:27;10.63;;;5.22;;
40867;SDS011;26586;50.708;22.412;2022-09-09T09:19:32;11.02;;;5.60;;
40867;SDS011;26586;50.708;22.412;2022-09-09T09:22:10;11.07;;;6.35;;
40867;SDS011;26586;50.708;22.412;2022-09-09T09:30:41;12.45;;;6.03;;
40867;SDS011;26586;50.708;22.412;2022-09-09T09:35:54;16.92;;;6.55;;
40867;SDS011;26586;50.708;22.412;2022-09-09T09:38:24;11.93;;;6.80;;
40867;SDS011;26586;50.708;22.412;2022-09-09T09:40:54;12.30;;;6.45;;
40867;SDS011;26586;50.708;22.412;2022-09-09T09:43:30;12.93;;;7.03;;
40867;SDS011;26586;50.708;22.412;2022-09-09T09:45:58;12.77;;;6.78;;
40867;SDS011;26586;50.708;22.412;2022-09-09T09:48:25;13.35;;;6.57;;
40867;SDS011;26586;50.708;22.412;2022-09-09T09:53:27;12.60;;;6.95;;
40867;SDS011;26586;50.708;22.412;2022-09-09T09:58:25;11.68;;;7.47;;
40867;SDS011;26586;50.708;22.412;2022-09-09T10:00:53;12.85;;;7.22;;
40867;SDS011;26586;50.708;22.412;2022-09-09T10:03:24;16.50;;;7.17;;
40867;SDS011;26586;50.708;22.412;2022-09-09T10:05:51;15.75;;;7.55;;
40867;SDS011;26586;50.708;22.412;2022-09-09T10:08:19;15.15;;;6.85;;
40867;SDS011;26586;50.708;22.412;2022-09-09T10:13:19;13.68;;;7.25;;
40867;SDS011;26586;50.708;22.412;2022-09-09T10:15:56;15.13;;;7.53;;
40867;SDS011;26586;50.708;22.412;2022-09-09T10:18:39;12.43;;;6.32;;
40867;SDS011;26586;50.708;22.412;2022-09-09T10:24:11;13.80;;;7.10;;
40867;SDS011;26586;50.708;22.412;2022-09-09T10:32:48;17.83;;;6.80;;
40867;SDS011;26586;50.708;22.412;2022-09-09T10:57:05;14.82;;;8.02;;
40867;SDS011;26586;50.708;22.412;2022-09-09T10:59:57;16.38;;;8.38;;
40867;SDS011;26586;50.708;22.412;2022-09-09T11:02:29;20.15;;;8.20;;
40867;SDS011;26586;50.708;22.412;2022-09-09T11:08:09;14.50;;;8.52;;
40867;SDS011;26586;50.708;22.412;2022-09-09T11:13:34;15.18;;;8.23;;
40867;SDS011;26586;50.708;22.412;2022-09-09T11:18:46;13.82;;;8.02;;
40867;SDS011;26586;50.708;22.412;2022-09-09T11:21:22;15.45;;;8.73;;
40867;SDS011;26586;50.708;22.412;2022-09-09T11:23:57;14.05;;;7.97;;
40867;SDS011;26586;50.708;22.412;2022-09-09T11:26:37;18.30;;;8.77;;
40867;SDS011;26586;50.708;22.412;2022-09-09T11:35:11;14.95;;;8.13;;
40867;SDS011;26586;50.708;22.412;2022-09-09T11:40:39;14.90;;;8.25;;
40867;SDS011;26586;50.708;22.412;2022-09-09T11:43:10;18.38;;;8.73;;
40867;SDS011;26586;50.708;22.412;2022-09-09T11:45:40;22.13;;;10.05;;
40867;SDS011;26586;50.708;22.412;2022-09-09T11:48:28;14.35;;;8.43;;
40867;SDS011;26586;50.708;22.412;2022-09-09T11:51:04;14.48;;;8.43;;
40867;SDS011;26586;50.708;22.412;2022-09-09T11:56:24;14.43;;;8.82;;
40867;SDS011;26586;50.708;22.412;2022-09-09T11:58:55;14.45;;;8.27;;
40867;SDS011;26586;50.708;22.412;2022-09-09T12:01:39;17.05;;;8.55;;
40867;SDS011;26586;50.708;22.412;2022-09-09T12:06:49;14.48;;;8.63;;
40867;SDS011;26586;50.708;22.412;2022-09-09T12:11:53;14.18;;;8.05;;
40867;SDS011;26586;50.708;22.412;2022-09-09T12:19:42;14.43;;;8.32;;
40867;SDS011;26586;50.708;22.412;2022-09-09T12:33:35;11.80;;;7.57;;
40867;SDS011;26586;50.708;22.412;2022-09-09T12:36:03;19.88;;;9.07;;
40867;SDS011;26586;50.708;22.412;2022-09-09T12:38:36;16.58;;;8.27;;
40867;SDS011;26586;50.708;22.412;2022-09-09T12:41:05;13.73;;;8.38;;
40867;SDS011;26586;50.708;22.412;2022-09-09T12:43:31;13.32;;;8.10;;
40867;SDS011;26586;50.708;22.412;2022-09-09T12:45:59;17.27;;;7.18;;
40867;SDS011;26586;50.708;22.412;2022-09-09T12:48:39;12.35;;;7.35;;
40867;SDS011;26586;50.708;22.412;2022-09-09T12:51:20;13.95;;;8.30;;
40867;SDS011;26586;50.708;22.412;2022-09-09T12:53:58;13.63;;;7.22;;
40867;SDS011;26586;50.708;22.412;2022-09-09T12:56:27;12.85;;;8.18;;
40867;SDS011;26586;50.708;22.412;2022-09-09T12:58:56;11.93;;;7.45;;
40867;SDS011;26586;50.708;22.412;2022-09-09T13:01:25;14.20;;;7.60;;
40867;SDS011;26586;50.708;22.412;2022-09-09T13:03:56;12.88;;;7.10;;
40867;SDS011;26586;50.708;22.412;2022-09-09T13:06:26;13.63;;;7.88;;
40867;SDS011;26586;50.708;22.412;2022-09-09T13:08:54;12.82;;;7.50;;
40867;SDS011;26586;50.708;22.412;2022-09-09T13:11:38;13.45;;;8.27;;
40867;SDS011;26586;50.708;22.412;2022-09-09T13:14:15;16.80;;;8.15;;
40867;SDS011;26586;50.708;22.412;2022-09-09T13:17:05;14.35;;;7.95;;
40867;SDS011;26586;50.708;22.412;2022-09-09T13:19:34;11.38;;;6.70;;
40867;SDS011;26586;50.708;22.412;2022-09-09T13:22:12;14.30;;;7.60;;
40867;SDS011;26586;50.708;22.412;2022-09-09T13:24:40;15.25;;;7.47;;
40867;SDS011;26586;50.708;22.412;2022-09-09T13:27:23;13.60;;;7.43;;
40867;SDS011;26586;50.708;22.412;2022-09-09T13:29:54;13.83;;;7.47;;
40867;SDS011;26586;50.708;22.412;2022-09-09T13:32:22;12.73;;;6.45;;
40867;SDS011;26586;50.708;22.412;2022-09-09T13:34:54;11.50;;;6.65;;
40867;SDS011;26586;50.708;22.412;2022-09-09T13:37:40;14.73;;;7.32;;
40867;SDS011;26586;50.708;22.412;2022-09-09T13:40:13;11.07;;;6.72;;
40867;SDS011;26586;50.708;22.412;2022-09-09T13:45:17;9.70;;;6.22;;
40867;SDS011;26586;50.708;22.412;2022-09-09T13:47:47;15.57;;;7.10;;
40867;SDS011;26586;50.708;22.412;2022-09-09T13:50:25;11.27;;;6.93;;
40867;SDS011;26586;50.708;22.412;2022-09-09T13:52:53;10.88;;;6.38;;
40867;SDS011;26586;50.708;22.412;2022-09-09T13:55:24;11.82;;;6.70;;
40867;SDS011;26586;50.708;22.412;2022-09-09T13:57:57;10.48;;;6.63;;
40867;SDS011;26586;50.708;22.412;2022-09-09T14:00:36;10.88;;;6.28;;
40867;SDS011;26586;50.708;22.412;2022-09-09T14:03:03;11.50;;;7.07;;
40867;SDS011;26586;50.708;22.412;2022-09-09T14:05:32;11.70;;;6.43;;
40867;SDS011;26586;50.708;22.412;2022-09-09T14:07:59;12.57;;;7.25;;
40867;SDS011;26586;50.708;22.412;2022-09-09T14:10:26;13.35;;;6.72;;
40867;SDS011;26586;50.708;22.412;2022-09-09T14:12:52;11.95;;;6.65;;
40867;SDS011;26586;50.708;22.412;2022-09-09T14:15:18;12.05;;;7.13;;
40867;SDS011;26586;50.708;22.412;2022-09-09T14:17:45;15.15;;;7.70;;
40867;SDS011;26586;50.708;22.412;2022-09-09T14:20:11;13.00;;;7.23;;
40867;SDS011;26586;50.708;22.412;2022-09-09T14:22:40;11.52;;;7.35;;
40867;SDS011;26586;50.708;22.412;2022-09-09T14:25:07;12.18;;;8.13;;
40867;SDS011;26586;50.708;22.412;2022-09-09T14:27:33;11.18;;;7.25;;
40867;SDS011;26586;50.708;22.412;2022-09-09T14:29:59;11.67;;;7.53;;
40867;SDS011;26586;50.708;22.412;2022-09-09T14:32:26;16.13;;;8.35;;
40867;SDS011;26586;50.708;22.412;2022-09-09T14:34:52;14.48;;;7.30;;
40867;SDS011;26586;50.708;22.412;2022-09-09T14:37:19;14.43;;;7.77;;
40867;SDS011;26586;50.708;22.412;2022-09-09T14:39:46;14.60;;;7.05;;
40867;SDS011;26586;50.708;22.412;2022-09-09T14:42:13;11.35;;;7.80;;
40867;SDS011;26586;50.708;22.412;2022-09-09T14:44:39;12.32;;;7.78;;
40867;SDS011;26586;50.708;22.412;2022-09-09T14:47:06;14.00;;;8.27;;
40867;SDS011;26586;50.708;22.412;2022-09-09T14:49:33;13.68;;;8.52;;
40867;SDS011;26586;50.708;22.412;2022-09-09T14:52:00;12.40;;;7.22;;
40867;SDS011;26586;50.708;22.412;2022-09-09T14:54:27;13.38;;;7.93;;
40867;SDS011;26586;50.708;22.412;2022-09-09T14:56:54;11.82;;;7.47;;
40867;SDS011;26586;50.708;22.412;2022-09-09T14:59:20;13.67;;;7.93;;
40867;SDS011;26586;50.708;22.412;2022-09-09T15:01:47;16.55;;;8.93;;
40867;SDS011;26586;50.708;22.412;2022-09-09T15:04:14;11.98;;;8.00;;
40867;SDS011;26586;50.708;22.412;2022-09-09T15:06:40;12.37;;;7.70;;
40867;SDS011;26586;50.708;22.412;2022-09-09T15:09:08;12.95;;;7.53;;
40867;SDS011;26586;50.708;22.412;2022-09-09T15:11:35;14.20;;;8.32;;
40867;SDS011;26586;50.708;22.412;2022-09-09T15:14:03;12.82;;;7.25;;
40867;SDS011;26586;50.708;22.412;2022-09-09T15:16:30;12.02;;;7.28;;
40867;SDS011;26586;50.708;22.412;2022-09-09T15:18:58;11.30;;;7.07;;
40867;SDS011;26586;50.708;22.412;2022-09-09T15:21:35;12.57;;;7.47;;
40867;SDS011;26586;50.708;22.412;2022-09-09T15:24:02;12.10;;;7.50;;
40867;SDS011;26586;50.708;22.412;2022-09-09T15:26:29;12.98;;;8.82;;
40867;SDS011;26586;50.708;22.412;2022-09-09T15:28:56;11.50;;;7.80;;
40867;SDS011;26586;50.708;22.412;2022-09-09T15:31:26;15.85;;;7.78;;
40867;SDS011;26586;50.708;22.412;2022-09-09T15:33:54;12.27;;;7.78;;
40867;SDS011;26586;50.708;22.412;2022-09-09T15:36:47;12.30;;;7.75;;
40867;SDS011;26586;50.708;22.412;2022-09-09T15:39:14;17.00;;;9.23;;
40867;SDS011;26586;50.708;22.412;2022-09-09T15:41:43;13.88;;;8.68;;
40867;SDS011;26586;50.708;22.412;2022-09-09T15:44:10;12.45;;;8.40;;
40867;SDS011;26586;50.708;22.412;2022-09-09T15:46:38;12.32;;;8.32;;
40867;SDS011;26586;50.708;22.412;2022-09-09T15:51:47;13.07;;;8.73;;
40867;SDS011;26586;50.708;22.412;2022-09-09T15:54:36;12.15;;;8.02;;
40867;SDS011;26586;50.708;22.412;2022-09-09T15:57:06;15.10;;;9.32;;
40867;SDS011;26586;50.708;22.412;2022-09-09T15:59:35;16.05;;;9.00;;
40867;SDS011;26586;50.708;22.412;2022-09-09T16:02:02;15.85;;;9.35;;
40867;SDS011;26586;50.708;22.412;2022-09-09T16:04:28;12.95;;;9.55;;
40867;SDS011;26586;50.708;22.412;2022-09-09T16:06:59;12.13;;;8.13;;
40867;SDS011;26586;50.708;22.412;2022-09-09T16:09:27;11.45;;;8.38;;
40867;SDS011;26586;50.708;22.412;2022-09-09T16:11:57;12.38;;;8.73;;
40867;SDS011;26586;50.708;22.412;2022-09-09T16:14:28;10.85;;;7.43;;
40867;SDS011;26586;50.708;22.412;2022-09-09T16:16:59;11.70;;;8.77;;
40867;SDS011;26586;50.708;22.412;2022-09-09T16:19:26;13.45;;;8.63;;
40867;SDS011;26586;50.708;22.412;2022-09-09T16:21:52;13.15;;;8.38;;
40867;SDS011;26586;50.708;22.412;2022-09-09T16:24:19;13.37;;;9.30;;
40867;SDS011;26586;50.708;22.412;2022-09-09T16:26:49;12.77;;;8.75;;
40867;SDS011;26586;50.708;22.412;2022-09-09T16:29:17;12.65;;;8.55;;
40867;SDS011;26586;50.708;22.412;2022-09-09T16:34:12;12.38;;;8.57;;
40867;SDS011;26586;50.708;22.412;2022-09-09T16:36:40;12.95;;;8.10;;
40867;SDS011;26586;50.708;22.412;2022-09-09T16:39:09;11.75;;;8.63;;
40867;SDS011;26586;50.708;22.412;2022-09-09T16:41:37;27.73;;;21.15;;
40867;SDS011;26586;50.708;22.412;2022-09-09T16:44:06;10.77;;;8.02;;
40867;SDS011;26586;50.708;22.412;2022-09-09T16:46:35;15.98;;;12.20;;
40867;SDS011;26586;50.708;22.412;2022-09-09T16:49:04;14.00;;;9.57;;
40867;SDS011;26586;50.708;22.412;2022-09-09T16:51:36;12.57;;;7.22;;
40867;SDS011;26586;50.708;22.412;2022-09-09T16:54:07;17.15;;;9.43;;
40867;SDS011;26586;50.708;22.412;2022-09-09T16:56:36;14.55;;;8.77;;
40867;SDS011;26586;50.708;22.412;2022-09-09T16:59:05;13.25;;;9.38;;
40867;SDS011;26586;50.708;22.412;2022-09-09T17:01:34;13.90;;;8.73;;
40867;SDS011;26586;50.708;22.412;2022-09-09T17:04:07;14.05;;;9.07;;
40867;SDS011;26586;50.708;22.412;2022-09-09T17:06:36;11.25;;;8.60;;
40867;SDS011;26586;50.708;22.412;2022-09-09T17:09:05;12.68;;;8.85;;
40867;SDS011;26586;50.708;22.412;2022-09-09T17:11:33;13.52;;;9.20;;
40867;SDS011;26586;50.708;22.412;2022-09-09T17:13:59;13.60;;;9.75;;
40867;SDS011;26586;50.708;22.412;2022-09-09T17:16:27;13.77;;;9.70;;
40867;SDS011;26586;50.708;22.412;2022-09-09T17:18:55;10.85;;;8.38;;
40867;SDS011;26586;50.708;22.412;2022-09-09T17:21:25;15.63;;;10.35;;
40867;SDS011;26586;50.708;22.412;2022-09-09T17:23:52;37.60;;;26.88;;
40867;SDS011;26586;50.708;22.412;2022-09-09T17:26:22;13.48;;;9.57;;
40867;SDS011;26586;50.708;22.412;2022-09-09T17:28:54;14.60;;;10.00;;
40867;SDS011;26586;50.708;22.412;2022-09-09T17:31:23;18.35;;;11.63;;
40867;SDS011;26586;50.708;22.412;2022-09-09T17:33:51;15.88;;;11.70;;
40867;SDS011;26586;50.708;22.412;2022-09-09T17:36:26;21.02;;;11.68;;
40867;SDS011;26586;50.708;22.412;2022-09-09T17:38:55;15.93;;;10.45;;
40867;SDS011;26586;50.708;22.412;2022-09-09T17:41:23;18.15;;;10.88;;
40867;SDS011;26586;50.708;22.412;2022-09-09T17:43:51;15.30;;;10.40;;
40867;SDS011;26586;50.708;22.412;2022-09-09T17:46:18;20.70;;;16.27;;
40867;SDS011;26586;50.708;22.412;2022-09-09T17:48:48;18.33;;;12.95;;
40867;SDS011;26586;50.708;22.412;2022-09-09T17:51:17;20.63;;;11.43;;
40867;SDS011;26586;50.708;22.412;2022-09-09T17:53:47;22.92;;;16.40;;
40867;SDS011;26586;50.708;22.412;2022-09-09T17:56:15;19.15;;;13.38;;
40867;SDS011;26586;50.708;22.412;2022-09-09T17:58:46;14.93;;;10.85;;
40867;SDS011;26586;50.708;22.412;2022-09-09T18:01:14;16.17;;;10.98;;